Time;durP1;ratioP1;P1;durP2;ratioP2;P2;SDS_P1;SDS_P2;PMS_P1;PMS_P2;Temp;Humidity;BMP_temperature;BMP_pressure;BME280_temperature;BME280_humidity;BME280_pressure;Samples;Min_cycle;Max_cycle;Signal;HPM_P1;HPM_P2
2022/08/27 00:00:14;;;;;;;;;;;;;;;27.49;44.36;98955.28;4472933;32;34095;-64
2022/08/27 00:02:42;;;;;;;;;;;;;;;27.48;44.23;98950.88;4479204;31;33685;-64
2022/08/27 00:05:10;;;;;;;;;;;;;;;27.44;44.02;98949.66;4469831;32;31951;-65
2022/08/27 00:07:38;;;;;;;;;;;;;;;27.43;43.72;98947.19;4478723;31;33952;-65
2022/08/27 00:10:07;;;;;;;;;;;;;;;27.27;44.00;98955.09;4477304;32;34307;-66
2022/08/27 00:12:34;;;;;;;;;;;;;;;27.27;43.97;98948.78;4484212;32;32871;-65
2022/08/27 00:15:03;;;;;;;;;;;;;;;27.21;43.94;98949.75;4479303;32;32017;-65
2022/08/27 00:17:31;;;;;;;;;;;;;;;27.02;44.63;98951.75;4484308;32;33979;-64
2022/08/27 00:19:58;;;;;;;;;;;;;;;27.06;44.42;98956.56;4482469;32;35782;-65
2022/08/27 00:22:26;;;;;;;;;;;;;;;27.05;44.32;98956.78;4485121;32;35118;-63
2022/08/27 00:24:53;;;;;;;;;;;;;;;27.08;44.01;98957.13;4477858;32;33414;-64
2022/08/27 00:27:21;;;;;;;;;;;;;;;27.12;43.98;98961.06;4484955;32;34032;-64
2022/08/27 00:29:48;;;;;;;;;;;;;;;27.12;44.07;98951.97;4482064;32;34259;-63
2022/08/27 00:32:16;;;;;;;;;;;;;;;27.02;44.44;98955.34;4483354;32;35354;-63
2022/08/27 00:34:43;;;;;;;;;;;;;;;27.00;44.26;98957.50;4483914;32;32659;-63
2022/08/27 00:37:10;;;;;;;;;;;;;;;26.99;44.30;98960.47;4481121;32;34774;-63
2022/08/27 00:39:38;;;;;;;;;;;;;;;26.94;44.38;98966.72;4484640;32;33055;-62
2022/08/27 00:42:06;;;;;;;;;;;;;;;26.90;44.80;98960.00;4483113;32;32904;-63
2022/08/27 00:44:33;;;;;;;;;;;;;;;26.89;44.69;98963.84;4480584;32;34367;-63
2022/08/27 00:47:03;;;;;;;;;;;;;;;26.89;44.47;98955.59;4473824;32;35310;-63
2022/08/27 00:49:30;;;;;;;;;;;;;;;26.91;44.27;98954.28;4479362;32;34243;-63
2022/08/27 00:52:06;;;;;;;;;;;;;;;26.87;44.35;98952.25;4480261;32;32933;-63
2022/08/27 00:54:34;;;;;;;;;;;;;;;26.83;44.33;98949.16;4483594;32;33051;-63
2022/08/27 00:57:01;;;;;;;;;;;;;;;26.86;44.40;98962.41;4480791;32;33727;-63
2022/08/27 00:59:29;;;;;;;;;;;;;;;26.87;44.23;98961.34;4483895;32;33719;-63
2022/08/27 01:04:49;;;;;;;;;;;;;;;26.84;44.41;98958.25;4484417;32;33462;-64
2022/08/27 01:07:17;;;;;;;;;;;;;;;26.74;44.65;98967.06;4469222;32;34019;-63
2022/08/27 01:09:45;;;;;;;;;;;;;;;26.73;44.38;98962.66;4468012;32;33251;-63
2022/08/27 01:12:16;;;;;;;;;;;;;;;26.72;44.20;98971.97;4479001;32;34204;-63
2022/08/27 01:14:44;;;;;;;;;;;;;;;26.63;44.29;98968.72;4484709;32;33311;-63
2022/08/27 01:17:11;;;;;;;;;;;;;;;26.50;44.72;98965.37;4482567;32;34050;-63
2022/08/27 01:19:39;;;;;;;;;;;;;;;26.47;44.88;98972.97;4480487;32;33083;-63
2022/08/27 01:22:21;;;;;;;;;;;;;;;26.49;44.77;98967.31;4481311;32;34466;-63
2022/08/27 01:24:51;;;;;;;;;;;;;;;26.43;45.85;98968.22;4484816;32;32508;-63
2022/08/27 01:27:19;;;;;;;;;;;;;;;26.44;45.56;98970.69;4485254;31;33622;-62
2022/08/27 01:29:47;;;;;;;;;;;;;;;26.56;45.20;98973.50;4483904;32;34568;-63
2022/08/27 01:32:16;;;;;;;;;;;;;;;26.57;44.85;98966.94;4482815;32;35163;-63
2022/08/27 01:34:44;;;;;;;;;;;;;;;26.56;45.05;98976.25;4484338;32;34037;-64
2022/08/27 01:37:12;;;;;;;;;;;;;;;26.61;44.80;98978.25;4484544;32;33953;-63
2022/08/27 01:39:40;;;;;;;;;;;;;;;26.54;44.14;98975.62;4484852;32;33025;-63
2022/08/27 01:42:11;;;;;;;;;;;;;;;26.56;44.26;98984.47;4484053;32;34111;-63
2022/08/27 01:44:45;;;;;;;;;;;;;;;26.54;44.87;98980.28;4485277;32;32634;-63
2022/08/27 01:47:12;;;;;;;;;;;;;;;26.57;45.05;98977.91;4485155;32;34215;-63
2022/08/27 01:49:40;;;;;;;;;;;;;;;26.41;46.00;98973.09;4483571;32;33956;-63
2022/08/27 01:52:07;;;;;;;;;;;;;;;26.51;44.72;98975.28;4483345;32;33131;-63
2022/08/27 01:54:35;;;;;;;;;;;;;;;26.45;44.33;98982.50;4480472;32;34405;-63
2022/08/27 01:57:02;;;;;;;;;;;;;;;26.45;44.56;98985.25;4483223;32;35213;-63
2022/08/27 01:59:30;;;;;;;;;;;;;;;26.26;44.69;98987.28;4484660;32;34740;-63
2022/08/27 02:02:07;;;;;;;;;;;;;;;26.28;44.75;98989.75;4479691;32;33949;-63
2022/08/27 02:04:35;;;;;;;;;;;;;;;26.20;45.11;98983.56;4483526;32;32668;-63
2022/08/27 02:07:02;;;;;;;;;;;;;;;26.19;45.29;98987.34;4481617;32;34957;-64
2022/08/27 02:09:30;;;;;;;;;;;;;;;26.19;45.14;98986.50;4484528;32;34156;-64
2022/08/27 02:11:59;;;;;;;;;;;;;;;26.03;45.50;98982.53;4484776;32;34269;-64
2022/08/27 02:14:27;;;;;;;;;;;;;;;26.07;45.13;98986.50;4486085;32;33431;-64
2022/08/27 02:16:54;;;;;;;;;;;;;;;26.03;45.38;98988.00;4479564;32;34843;-64
2022/08/27 02:19:22;;;;;;;;;;;;;;;26.04;45.24;98984.22;4480700;32;34227;-63
2022/08/27 02:21:50;;;;;;;;;;;;;;;26.02;45.66;98989.09;4479856;32;33814;-63
2022/08/27 02:24:17;;;;;;;;;;;;;;;26.05;45.26;98983.16;4478420;32;33280;-64
2022/08/27 02:26:45;;;;;;;;;;;;;;;26.03;45.48;98979.78;4475225;32;32898;-64
2022/08/27 02:29:12;;;;;;;;;;;;;;;26.00;45.06;98974.78;4475571;32;33930;-64
2022/08/27 02:31:40;;;;;;;;;;;;;;;26.00;45.62;98974.78;4485398;32;34526;-64
2022/08/27 02:34:09;;;;;;;;;;;;;;;25.98;45.43;98977.75;4483472;32;33354;-64
2022/08/27 02:36:37;;;;;;;;;;;;;;;26.02;45.09;98975.38;4484397;32;32822;-64
2022/08/27 02:39:05;;;;;;;;;;;;;;;26.07;45.05;98971.94;4473667;32;34193;-64
2022/08/27 02:41:32;;;;;;;;;;;;;;;26.07;44.70;98969.19;4480191;32;33860;-64
2022/08/27 02:44:00;;;;;;;;;;;;;;;26.00;44.77;98978.38;4482520;32;34930;-64
2022/08/27 02:46:28;;;;;;;;;;;;;;;26.00;44.68;98967.41;4484054;32;35168;-64
2022/08/27 02:48:55;;;;;;;;;;;;;;;25.76;45.73;98973.84;4482385;32;34165;-64
2022/08/27 02:51:23;;;;;;;;;;;;;;;25.86;45.41;98970.56;4484008;32;35028;-64
2022/08/27 02:53:50;;;;;;;;;;;;;;;25.90;45.14;98980.00;4483217;32;34209;-64
2022/08/27 02:56:18;;;;;;;;;;;;;;;25.92;45.22;98980.59;4481092;32;33581;-64
2022/08/27 02:58:48;;;;;;;;;;;;;;;25.92;45.10;98969.63;4468819;32;35503;-65
2022/08/27 03:01:15;;;;;;;;;;;;;;;25.79;45.17;98970.63;4476644;32;34055;-65
2022/08/27 03:03:43;;;;;;;;;;;;;;;25.66;45.31;98968.91;4479545;32;34545;-64
2022/08/27 03:06:10;;;;;;;;;;;;;;;25.69;45.23;98968.44;4475188;32;35036;-64
2022/08/27 03:08:37;;;;;;;;;;;;;;;25.67;45.78;98969.75;4481017;32;33997;-63
2022/08/27 03:11:21;;;;;;;;;;;;;;;25.68;45.79;98969.53;4474618;31;32709;-63
2022/08/27 03:13:49;;;;;;;;;;;;;;;25.65;46.47;98972.72;4476210;32;33257;-66
2022/08/27 03:16:16;;;;;;;;;;;;;;;25.76;45.63;98971.94;4475043;31;35270;-64
2022/08/27 03:18:44;;;;;;;;;;;;;;;25.67;46.40;98976.06;4475869;32;34213;-65
2022/08/27 03:21:15;;;;;;;;;;;;;;;25.67;45.39;98976.06;4473987;31;32788;-65
2022/08/27 03:23:42;;;;;;;;;;;;;;;25.59;46.15;98976.38;4469230;32;33286;-65
2022/08/27 03:26:10;;;;;;;;;;;;;;;25.63;46.32;98974.84;4481920;32;32961;-64
2022/08/27 03:28:38;;;;;;;;;;;;;;;25.67;45.96;98978.78;4479191;31;34043;-64
2022/08/27 03:31:06;;;;;;;;;;;;;;;25.68;46.01;98972.25;4475646;32;33986;-65
2022/08/27 03:33:36;;;;;;;;;;;;;;;25.58;46.31;98976.59;4480510;31;32957;-64
2022/08/27 03:36:04;;;;;;;;;;;;;;;25.58;46.14;98974.69;4481144;32;34284;-64
2022/08/27 03:38:32;;;;;;;;;;;;;;;25.50;46.50;98972.28;4473727;32;34031;-65
2022/08/27 03:41:00;;;;;;;;;;;;;;;25.08;47.41;98977.59;4479692;32;33695;-64
2022/08/27 03:43:27;;;;;;;;;;;;;;;25.27;46.69;98975.72;4478667;31;33339;-64
2022/08/27 03:45:55;;;;;;;;;;;;;;;25.42;46.80;98980.81;4468759;32;32193;-65
2022/08/27 03:48:29;;;;;;;;;;;;;;;25.19;47.19;98979.59;4476079;31;35684;-65
2022/08/27 03:50:57;;;;;;;;;;;;;;;25.35;46.93;98978.16;4474534;32;32992;-65
2022/08/27 03:53:24;;;;;;;;;;;;;;;25.47;46.42;98975.47;4478693;32;34267;-65
2022/08/27 03:55:52;;;;;;;;;;;;;;;25.53;46.43;98980.03;4479614;31;34029;-64
2022/08/27 03:58:19;;;;;;;;;;;;;;;25.30;47.15;98973.38;4481293;32;35450;-65
2022/08/27 04:00:47;;;;;;;;;;;;;;;25.32;46.82;98979.44;4477400;31;34821;-64
2022/08/27 04:03:14;;;;;;;;;;;;;;;25.30;46.55;98980.75;4471900;32;34535;-64
2022/08/27 04:05:42;;;;;;;;;;;;;;;25.20;47.18;98986.75;4480076;31;34188;-65
2022/08/27 04:08:12;;;;;;;;;;;;;;;25.21;46.85;98977.47;4469374;32;32920;-65
2022/08/27 04:10:40;;;;;;;;;;;;;;;25.19;46.90;98981.50;4481260;31;34173;-64
2022/08/27 04:13:07;;;;;;;;;;;;;;;25.14;47.03;98984.09;4480504;32;31918;-65
2022/08/27 04:15:34;;;;;;;;;;;;;;;24.98;47.48;98975.38;4468564;32;32670;-64
2022/08/27 04:18:07;;;;;;;;;;;;;;;25.07;47.44;98979.50;4479756;32;34111;-65
2022/08/27 04:20:34;;;;;;;;;;;;;;;25.15;47.25;98975.66;4475275;32;34020;-64
2022/08/27 04:23:03;;;;;;;;;;;;;;;25.08;47.65;98977.59;4481391;31;32123;-65
2022/08/27 04:25:31;;;;;;;;;;;;;;;25.25;47.59;98975.94;4480667;32;32975;-64
2022/08/27 04:27:58;;;;;;;;;;;;;;;25.17;47.59;98984.47;4480148;31;32736;-65
2022/08/27 04:30:25;;;;;;;;;;;;;;;25.31;47.36;98982.41;4473932;32;34024;-64
2022/08/27 04:32:53;;;;;;;;;;;;;;;25.25;47.49;98980.59;4481272;31;33085;-64
2022/08/27 04:35:20;;;;;;;;;;;;;;;25.21;47.46;98993.06;4476081;32;35745;-63
2022/08/27 04:37:47;;;;;;;;;;;;;;;25.24;47.25;98985.22;4472979;31;32995;-64
2022/08/27 04:40:15;;;;;;;;;;;;;;;25.19;47.21;98981.50;4476045;32;34433;-65
2022/08/27 04:42:43;;;;;;;;;;;;;;;25.09;47.55;98987.47;4481585;32;32338;-64
2022/08/27 04:45:10;;;;;;;;;;;;;;;25.12;47.47;98981.56;4477754;31;33997;-64
2022/08/27 04:47:38;;;;;;;;;;;;;;;25.22;47.44;98981.03;4477457;32;34113;-64
2022/08/27 04:50:05;;;;;;;;;;;;;;;25.09;47.75;98985.56;4475539;31;34114;-63
2022/08/27 04:52:34;;;;;;;;;;;;;;;25.18;47.56;98972.44;4479770;32;32494;-63
2022/08/27 04:55:08;;;;;;;;;;;;;;;25.33;47.24;98972.06;4480143;31;33759;-62
2022/08/27 04:57:36;;;;;;;;;;;;;;;25.39;47.52;98979.34;4477534;32;34159;-65
2022/08/27 05:00:06;;;;;;;;;;;;;;;25.51;47.28;98979.44;4479598;31;32291;-65
2022/08/27 05:02:33;;;;;;;;;;;;;;;25.53;47.64;98986.34;4477103;32;33240;-65
2022/08/27 05:05:01;;;;;;;;;;;;;;;25.46;47.84;98982.88;4479505;31;33864;-64
2022/08/27 05:07:28;;;;;;;;;;;;;;;25.67;46.42;98988.91;4476117;32;32228;-64
2022/08/27 05:09:56;;;;;;;;;;;;;;;26.30;45.07;98982.16;4476654;32;34226;-64
2022/08/27 05:12:23;;;;;;;;;;;;;;;26.92;44.12;98986.16;4476652;31;34283;-64
2022/08/27 05:14:50;;;;;;;;;;;;;;;27.30;42.82;98986.75;4475822;32;35161;-64
2022/08/27 05:17:18;;;;;;;;;;;;;;;27.19;42.74;98985.66;4480204;32;32632;-64
2022/08/27 05:19:45;;;;;;;;;;;;;;;27.14;42.83;98982.84;4476590;32;34227;-64
2022/08/27 05:22:13;;;;;;;;;;;;;;;27.21;42.92;98988.19;4475987;31;33259;-64
2022/08/27 05:24:40;;;;;;;;;;;;;;;27.51;42.29;98988.88;4473811;32;33902;-64
2022/08/27 05:27:08;;;;;;;;;;;;;;;27.49;41.54;98985.50;4475717;31;34837;-64
2022/08/27 05:29:38;;;;;;;;;;;;;;;27.40;42.36;98989.72;4481228;32;33789;-64
2022/08/27 05:32:06;;;;;;;;;;;;;;;27.39;42.71;98980.63;4479116;31;33532;-64
2022/08/27 05:34:34;;;;;;;;;;;;;;;27.85;41.29;98989.00;4478253;32;32999;-64
2022/08/27 05:37:01;;;;;;;;;;;;;;;28.15;40.74;98982.38;4481010;32;34342;-64
2022/08/27 05:39:29;;;;;;;;;;;;;;;27.93;41.59;98979.50;4475932;31;34028;-68
2022/08/27 05:41:56;;;;;;;;;;;;;;;27.70;41.99;98981.25;4479297;32;32601;-64
2022/08/27 05:44:23;;;;;;;;;;;;;;;28.42;41.01;98982.63;4475912;31;33976;-64
2022/08/27 05:47:08;;;;;;;;;;;;;;;29.23;39.85;98988.56;4478576;32;34349;-64
2022/08/27 05:49:36;;;;;;;;;;;;;;;29.51;38.34;98982.06;4469461;32;33627;-64
2022/08/27 05:52:06;;;;;;;;;;;;;;;29.89;36.46;98986.66;4471023;32;33190;-64
2022/08/27 05:54:34;;;;;;;;;;;;;;;30.30;36.06;98981.56;4472174;31;33272;-64
2022/08/27 05:57:01;;;;;;;;;;;;;;;30.35;35.61;98984.38;4480581;32;35176;-64
2022/08/27 06:02:14;;;;;;;;;;;;;;;29.58;37.54;98984.63;4471250;32;33837;-64
2022/08/27 06:04:42;;;;;;;;;;;;;;;29.35;38.12;98985.72;4476106;31;34011;-64
2022/08/27 06:07:09;;;;;;;;;;;;;;;29.22;39.44;98982.22;4475501;32;34197;-64
2022/08/27 06:09:37;;;;;;;;;;;;;;;29.12;40.32;98987.63;4475138;32;32757;-64
2022/08/27 06:12:05;;;;;;;;;;;;;;;28.99;39.57;98986.03;4478803;31;33504;-64
2022/08/27 06:14:33;;;;;;;;;;;;;;;29.00;39.73;98984.97;4480236;32;35341;-64
2022/08/27 06:17:01;;;;;;;;;;;;;;;29.01;39.79;98989.38;4479153;31;32775;-63
2022/08/27 06:19:29;;;;;;;;;;;;;;;28.97;39.85;98990.94;4481362;32;33002;-64
2022/08/27 06:21:58;;;;;;;;;;;;;;;29.01;39.86;98985.78;4476999;31;32147;-64
2022/08/27 06:24:38;;;;;;;;;;;;;;;28.89;38.31;98988.63;4481460;32;35247;-63
2022/08/27 06:27:05;;;;;;;;;;;;;;;28.90;39.31;98992.22;4481967;32;32841;-64
2022/08/27 06:29:33;;;;;;;;;;;;;;;28.82;38.53;99000.88;4481599;32;32806;-64
2022/08/27 06:32:01;;;;;;;;;;;;;;;28.85;39.14;99006.72;4482198;32;33153;-64
2022/08/27 06:34:29;;;;;;;;;;;;;;;28.96;38.88;99005.81;4483129;32;34779;-64
2022/08/27 06:36:56;;;;;;;;;;;;;;;29.05;38.95;99010.91;4484367;32;34334;-64
2022/08/27 06:39:24;;;;;;;;;;;;;;;28.91;39.70;99019.47;4484926;32;34206;-64
2022/08/27 06:41:51;;;;;;;;;;;;;;;29.05;38.41;99014.47;4477268;32;32951;-63
2022/08/27 06:44:20;;;;;;;;;;;;;;;29.17;38.13;99017.16;4481669;32;34413;-64
2022/08/27 06:46:48;;;;;;;;;;;;;;;29.27;38.10;99020.03;4480191;32;33038;-64
2022/08/27 06:49:16;;;;;;;;;;;;;;;29.30;38.54;99016.78;4485647;32;34205;-64
2022/08/27 06:51:45;;;;;;;;;;;;;;;29.48;36.97;99019.22;4481413;32;34438;-65
2022/08/27 06:54:13;;;;;;;;;;;;;;;29.57;36.62;99018.81;4480219;32;33878;-64
2022/08/27 06:56:41;;;;;;;;;;;;;;;29.48;35.42;99019.22;4481124;32;35141;-64
2022/08/27 06:59:10;;;;;;;;;;;;;;;29.31;35.57;99021.22;4481984;32;32857;-64
2022/08/27 07:01:40;;;;;;;;;;;;;;;29.23;36.58;99018.87;4478152;32;32357;-63
2022/08/27 07:04:09;;;;;;;;;;;;;;;29.36;36.91;99017.69;4477190;32;34233;-63
2022/08/27 07:06:36;;;;;;;;;;;;;;;29.37;35.87;99024.84;4483077;32;35361;-63
2022/08/27 07:09:05;;;;;;;;;;;;;;;29.22;35.23;99025.50;4484065;32;34912;-64
2022/08/27 07:11:33;;;;;;;;;;;;;;;28.83;35.09;99022.69;4476134;32;34315;-64
2022/08/27 07:14:00;;;;;;;;;;;;;;;29.30;36.30;99025.03;4472516;32;35016;-64
2022/08/27 07:16:28;;;;;;;;;;;;;;;29.37;37.15;99033.94;4483573;32;35518;-64
2022/08/27 07:18:57;;;;;;;;;;;;;;;28.90;37.62;99037.09;4484694;32;34054;-64
2022/08/27 07:21:30;;;;;;;;;;;;;;;29.15;37.64;99044.09;4481850;32;33069;-64
2022/08/27 07:24:02;;;;;;;;;;;;;;;29.60;36.81;99040.31;4480826;32;32569;-64
2022/08/27 07:26:30;;;;;;;;;;;;;;;29.74;35.90;99047.16;4480921;32;34323;-64
2022/08/27 07:28:58;;;;;;;;;;;;;;;29.61;36.38;99044.78;4477314;32;33914;-64
2022/08/27 07:31:25;;;;;;;;;;;;;;;29.67;35.33;99041.84;4467602;32;206059;-64
2022/08/27 07:33:52;;;;;;;;;;;;;;;29.17;36.25;99048.28;4482499;32;34833;-64
2022/08/27 07:36:20;;;;;;;;;;;;;;;29.55;35.37;99046.63;4483732;32;34092;-64
2022/08/27 07:38:48;;;;;;;;;;;;;;;29.57;33.82;99046.38;4484384;32;32850;-64
2022/08/27 07:41:28;;;;;;;;;;;;;;;29.44;34.71;99048.41;4476542;32;32004;-63
2022/08/27 07:46:44;;;;;;;;;;;;;;;29.80;34.88;99051.66;4483341;32;34171;-64
2022/08/27 07:49:16;;;;;;;;;;;;;;;29.82;32.93;99054.13;4481110;32;33564;-64
2022/08/27 07:51:43;;;;;;;;;;;;;;;29.85;32.35;99050.88;4482811;32;34071;-64
2022/08/27 07:54:11;;;;;;;;;;;;;;;29.79;31.67;99052.75;4483414;32;34078;-64
2022/08/27 07:56:38;;;;;;;;;;;;;;;29.70;31.89;99044.09;4476407;32;35560;-64
2022/08/27 07:59:05;;;;;;;;;;;;;;;29.71;32.10;99039.41;4482207;32;33118;-64
2022/08/27 08:01:33;;;;;;;;;;;;;;;29.36;32.62;99046.06;4475922;32;33180;-64
2022/08/27 08:04:01;;;;;;;;;;;;;;;29.68;33.06;99046.25;4480127;32;34039;-64
2022/08/27 08:06:29;;;;;;;;;;;;;;;29.88;33.42;99042.09;4478174;32;35581;-64
2022/08/27 08:08:58;;;;;;;;;;;;;;;29.47;32.61;99045.16;4475763;32;34882;-64
2022/08/27 08:11:26;;;;;;;;;;;;;;;29.65;32.20;99052.28;4480263;32;33396;-64
2022/08/27 08:13:53;;;;;;;;;;;;;;;29.77;31.96;99043.06;4481632;32;33990;-64
2022/08/27 08:16:22;;;;;;;;;;;;;;;29.61;32.18;99053.06;4478362;32;35609;-64
2022/08/27 08:18:54;;;;;;;;;;;;;;;29.58;32.72;99051.62;4482188;32;34293;-64
2022/08/27 08:21:22;;;;;;;;;;;;;;;29.69;32.37;99055.37;4481605;32;34284;-64
2022/08/27 08:23:49;;;;;;;;;;;;;;;29.67;30.74;99057.56;4484348;32;35156;-64
2022/08/27 08:26:17;;;;;;;;;;;;;;;29.79;31.31;99060.16;4483574;32;35359;-64
2022/08/27 08:28:44;;;;;;;;;;;;;;;29.94;30.69;99055.66;4476146;32;32910;-64
2022/08/27 08:31:11;;;;;;;;;;;;;;;30.31;30.97;99046.75;4481742;32;33486;-64
2022/08/27 08:33:39;;;;;;;;;;;;;;;30.34;31.30;99059.19;4484073;32;33888;-64
2022/08/27 08:36:12;;;;;;;;;;;;;;;30.16;31.84;99054.81;4480907;32;33992;-64
2022/08/27 08:38:40;;;;;;;;;;;;;;;30.13;30.98;99049.81;4479215;32;35166;-62
2022/08/27 08:41:26;;;;;;;;;;;;;;;30.49;31.71;99052.97;4480237;32;32944;-62
2022/08/27 08:43:57;;;;;;;;;;;;;;;30.49;31.77;99058.50;4483261;32;33838;-62
2022/08/27 08:46:57;;;;;;;;;;;;;;;30.79;31.51;99056.03;4483371;32;34260;-62
2022/08/27 08:49:30;;;;;;;;;;;;;;;31.01;30.41;99052.31;4479582;32;34060;-63
2022/08/27 08:52:01;;;;;;;;;;;;;;;31.04;30.72;99057.31;4478673;32;33876;-63
2022/08/27 08:54:29;;;;;;;;;;;;;;;30.45;30.51;99055.44;4483499;32;32875;-62
2022/08/27 08:57:04;;;;;;;;;;;;;;;30.91;30.45;99055.00;4477101;32;35692;-62
2022/08/27 08:59:33;;;;;;;;;;;;;;;30.80;29.91;99052.19;4472158;32;33835;-62
2022/08/27 09:02:00;;;;;;;;;;;;;;;30.97;30.44;99053.97;4477967;32;33418;-63
2022/08/27 09:04:27;;;;;;;;;;;;;;;31.16;30.22;99049.69;4476311;32;33512;-63
2022/08/27 09:07:03;;;;;;;;;;;;;;;31.30;29.45;99045.34;4482850;32;33998;-64
2022/08/27 09:09:30;;;;;;;;;;;;;;;31.48;28.77;99048.78;4479541;32;33737;-64
2022/08/27 09:11:59;;;;;;;;;;;;;;;31.67;29.94;99044.47;4482256;32;31914;-64
2022/08/27 09:14:33;;;;;;;;;;;;;;;31.55;30.34;99049.38;4468940;32;35245;-64
2022/08/27 09:17:01;;;;;;;;;;;;;;;31.55;28.80;99046.59;4483488;32;32683;-64
2022/08/27 09:19:37;;;;;;;;;;;;;;;31.94;28.48;99043.47;4480539;32;34225;-64
2022/08/27 09:22:07;;;;;;;;;;;;;;;32.08;28.46;99041.06;4483248;32;33194;-65
2022/08/27 09:24:53;;;;;;;;;;;;;;;31.89;28.38;99036.00;4467615;32;35450;-65
2022/08/27 09:27:21;;;;;;;;;;;;;;;31.89;28.14;99032.41;4473058;32;33863;-65
2022/08/27 09:29:50;;;;;;;;;;;;;;;32.10;28.23;99036.06;4480755;32;34113;-65
2022/08/27 09:32:27;;;;;;;;;;;;;;;32.39;27.45;99039.16;4476839;32;32837;-65
2022/08/27 09:34:58;;;;;;;;;;;;;;;32.24;29.17;99031.69;4480946;32;34133;-65
2022/08/27 09:37:27;;;;;;;;;;;;;;;32.42;26.58;99031.13;4473402;32;32352;-65
2022/08/27 09:40:07;;;;;;;;;;;;;;;32.56;26.43;99028.69;4469769;32;34475;-64
2022/08/27 09:42:45;;;;;;;;;;;;;;;32.81;26.52;99029.78;4469521;32;33641;-65
2022/08/27 09:45:17;;;;;;;;;;;;;;;33.09;26.47;99031.19;4476543;32;34966;-64
2022/08/27 09:48:01;;;;;;;;;;;;;;;32.98;26.17;99029.53;4480493;32;34080;-65
2022/08/27 09:50:30;;;;;;;;;;;;;;;32.52;26.45;99030.38;4469434;32;33651;-65
2022/08/27 09:52:58;;;;;;;;;;;;;;;32.79;26.23;99032.03;4480566;32;33338;-65
2022/08/27 09:55:37;;;;;;;;;;;;;;;33.06;25.12;99029.78;4477923;32;34829;-65
2022/08/27 09:58:07;;;;;;;;;;;;;;;32.87;26.06;99024.00;4477655;32;35496;-65
2022/08/27 10:00:35;;;;;;;;;;;;;;;33.50;25.15;99026.41;4483133;32;35133;-65
2022/08/27 10:03:04;;;;;;;;;;;;;;;33.19;25.27;99016.47;4479998;32;33302;-63
2022/08/27 10:05:35;;;;;;;;;;;;;;;33.61;23.77;99024.41;4481599;32;33817;-63
2022/08/27 10:08:22;;;;;;;;;;;;;;;33.50;25.17;99022.78;4481009;32;34283;-63
2022/08/27 10:10:54;;;;;;;;;;;;;;;33.86;23.38;99020.69;4481100;32;34525;-63
2022/08/27 10:13:26;;;;;;;;;;;;;;;33.85;23.35;99024.59;4467001;32;32931;-62
2022/08/27 10:16:01;;;;;;;;;;;;;;;34.04;21.70;99025.63;4478096;32;33701;-63
2022/08/27 10:18:51;;;;;;;;;;;;;;;34.00;21.96;99018.97;4472354;32;33933;-66
2022/08/27 10:21:34;;;;;;;;;;;;;;;34.57;20.92;99019.44;4465797;32;34481;-62
2022/08/27 10:24:21;;;;;;;;;;;;;;;34.21;21.42;99016.91;4477751;32;34346;-62
2022/08/27 10:26:54;;;;;;;;;;;;;;;34.44;21.50;99023.69;4481678;32;34208;-62
2022/08/27 10:29:22;;;;;;;;;;;;;;;34.73;21.53;99023.75;4482147;32;34441;-63
2022/08/27 10:31:53;;;;;;;;;;;;;;;34.92;21.33;99028.59;4477611;32;33051;-63
2022/08/27 10:34:38;;;;;;;;;;;;;;;35.21;21.46;99028.62;4479064;32;33395;-63
2022/08/27 10:37:14;;;;;;;;;;;;;;;34.92;21.89;99023.06;4482054;32;34230;-63
2022/08/27 10:39:49;;;;;;;;;;;;;;;35.10;20.38;99025.13;4477145;32;33512;-63
2022/08/27 10:42:25;;;;;;;;;;;;;;;35.02;21.07;99025.72;4480266;32;32764;-64
2022/08/27 10:45:04;;;;;;;;;;;;;;;35.12;21.09;99022.91;4482306;32;34403;-64
2022/08/27 10:47:43;;;;;;;;;;;;;;;35.37;21.09;99029.28;4476013;32;34132;-63
2022/08/27 10:50:11;;;;;;;;;;;;;;;35.71;21.11;99015.28;4478903;32;33132;-64
2022/08/27 10:52:49;;;;;;;;;;;;;;;35.83;20.56;99012.09;4484383;32;34008;-65
2022/08/27 10:55:19;;;;;;;;;;;;;;;36.00;20.28;99020.75;4480150;32;33455;-63
2022/08/27 10:57:56;;;;;;;;;;;;;;;36.22;19.81;99009.03;4481067;32;32719;-63
2022/08/27 11:00:42;;;;;;;;;;;;;;;36.05;19.75;99012.38;4479660;32;34310;-64
2022/08/27 11:03:11;;;;;;;;;;;;;;;36.09;20.49;99016.19;4474419;32;34860;-64
2022/08/27 11:05:45;;;;;;;;;;;;;;;36.04;21.65;99009.87;4474627;32;32420;-64
2022/08/27 11:08:17;;;;;;;;;;;;;;;36.09;21.54;99009.81;4467547;32;34227;-63
2022/08/27 11:10:47;;;;;;;;;;;;;;;36.17;20.42;99013.84;4474739;31;35178;-64
2022/08/27 11:13:34;;;;;;;;;;;;;;;36.20;20.39;99010.47;4481013;32;33024;-64
2022/08/27 11:16:05;;;;;;;;;;;;;;;36.45;20.84;99007.28;4465865;32;33436;-64
2022/08/27 11:18:36;;;;;;;;;;;;;;;36.54;20.81;99001.87;4480170;32;34129;-63
2022/08/27 11:21:12;;;;;;;;;;;;;;;36.68;21.08;99002.75;4479388;31;34178;-63
2022/08/27 11:23:42;;;;;;;;;;;;;;;36.52;21.65;98998.56;4481621;32;34216;-64
2022/08/27 11:26:11;;;;;;;;;;;;;;;36.87;21.73;98993.53;4453147;32;31938;-63
2022/08/27 11:28:48;;;;;;;;;;;;;;;36.97;21.40;98993.31;4479346;32;33880;-64
2022/08/27 11:31:19;;;;;;;;;;;;;;;36.72;20.66;98997.41;4474753;32;32076;-63
2022/08/27 11:34:04;;;;;;;;;;;;;;;36.49;21.20;98994.41;4471365;32;33815;-63
2022/08/27 11:36:32;;;;;;;;;;;;;;;36.27;21.01;98985.84;4467436;32;33576;-63
2022/08/27 11:39:04;;;;;;;;;;;;;;;36.57;21.79;98990.13;4480577;32;34124;-63
2022/08/27 11:41:43;;;;;;;;;;;;;;;36.50;21.29;98993.31;4479432;32;34200;-63
2022/08/27 11:44:12;;;;;;;;;;;;;;;36.49;21.51;98990.78;4474650;32;32963;-63
2022/08/27 11:46:44;;;;;;;;;;;;;;;36.52;21.64;98985.47;4460323;32;31982;-63
2022/08/27 11:49:21;;;;;;;;;;;;;;;36.43;21.27;98987.25;4469027;32;34212;-63
2022/08/27 11:51:55;;;;;;;;;;;;;;;36.49;21.46;98985.22;4473634;32;33903;-63
2022/08/27 11:54:25;;;;;;;;;;;;;;;36.38;21.62;98979.00;4474552;32;34303;-63
2022/08/27 11:56:53;;;;;;;;;;;;;;;36.35;21.37;98971.22;4469299;32;33654;-66
2022/08/27 11:59:26;;;;;;;;;;;;;;;35.97;21.87;98968.44;4469234;31;33272;-63
2022/08/27 12:01:55;;;;;;;;;;;;;;;35.95;21.96;98967.06;4478605;32;35025;-63
2022/08/27 12:04:39;;;;;;;;;;;;;;;36.19;22.14;98964.25;4477958;31;34832;-63
2022/08/27 12:07:13;;;;;;;;;;;;;;;36.11;21.58;98965.75;4470211;32;33029;-63
2022/08/27 12:09:43;;;;;;;;;;;;;;;35.76;22.22;98961.50;4475295;31;33742;-63
2022/08/27 12:12:15;;;;;;;;;;;;;;;35.66;23.15;98963.28;4473525;32;34202;-62
2022/08/27 12:14:42;;;;;;;;;;;;;;;35.55;22.55;98955.38;4478670;31;33931;-62
2022/08/27 12:17:12;;;;;;;;;;;;;;;35.83;21.81;98954.44;4481188;32;33710;-63
2022/08/27 12:19:44;;;;;;;;;;;;;;;35.72;22.19;98958.47;4479131;31;33236;-63
2022/08/27 12:22:27;;;;;;;;;;;;;;;35.95;22.12;98942.84;4473878;32;32957;-63
2022/08/27 12:24:55;;;;;;;;;;;;;;;36.15;22.57;98942.56;4473213;32;33999;-63
2022/08/27 12:27:23;;;;;;;;;;;;;;;36.17;22.10;98947.81;4469700;32;32869;-63
2022/08/27 12:30:03;;;;;;;;;;;;;;;35.97;22.13;98940.59;4477608;32;32920;-63
2022/08/27 12:32:41;;;;;;;;;;;;;;;36.15;22.24;98937.00;4476015;31;35585;-63
2022/08/27 12:35:16;;;;;;;;;;;;;;;36.03;22.34;98946.94;4475329;32;33993;-63
2022/08/27 12:37:44;;;;;;;;;;;;;;;36.20;22.03;98947.22;4477831;31;33165;-63
2022/08/27 12:40:16;;;;;;;;;;;;;;;36.31;21.78;98933.94;4480118;32;35193;-63
2022/08/27 12:42:47;;;;;;;;;;;;;;;35.55;23.80;98933.13;4477492;32;34385;-63
2022/08/27 12:45:22;;;;;;;;;;;;;;;35.38;22.78;98930.81;4481110;32;35149;-63
2022/08/27 12:47:50;;;;;;;;;;;;;;;35.51;22.12;98924.53;4478585;31;32039;-63
2022/08/27 12:50:22;;;;;;;;;;;;;;;35.36;21.90;98922.75;4473683;32;34044;-63
2022/08/27 12:53:11;;;;;;;;;;;;;;;35.84;21.94;98917.13;4466159;32;32992;-62
2022/08/27 12:56:14;;;;;;;;;;;;;;;36.15;21.93;98914.72;4478572;32;33921;-63
2022/08/27 12:58:57;;;;;;;;;;;;;;;35.97;22.66;98918.31;4401163;32;33626;-62
2022/08/27 13:01:28;;;;;;;;;;;;;;;36.25;22.60;98921.25;4466900;32;35487;-62
2022/08/27 13:03:56;;;;;;;;;;;;;;;36.31;22.65;98915.28;4466689;32;33882;-63
2022/08/27 13:06:32;;;;;;;;;;;;;;;36.26;22.07;98914.53;4481551;32;35463;-62
2022/08/27 13:09:02;;;;;;;;;;;;;;;36.09;21.63;98915.12;4473552;31;32109;-63
2022/08/27 13:11:30;;;;;;;;;;;;;;;35.87;22.53;98910.94;4475430;32;34570;-63